Time;durP1;ratioP1;P1;durP2;ratioP2;P2;SDS_P1;SDS_P2;PMS_P1;PMS_P2;Temp;Humidity;BMP_temperature;BMP_pressure;BME280_temperature;BME280_humidity;BME280_pressure;Samples;Min_cycle;Max_cycle;Signal;HPM_P1;HPM_P2
2024/01/16 00:01:44;;;;;;;4.35;1.60;;;;;;;;;;6309038;22;20019;-79
2024/01/16 00:04:11;;;;;;;8.35;1.83;;;;;;;;;;6281479;22;20148;-79
2024/01/16 00:06:43;;;;;;;6.55;1.50;;;;;;;;;;6311090;22;20086;-79
2024/01/16 00:09:10;;;;;;;5.57;1.50;;;;;;;;;;6283491;22;20015;-79
2024/01/16 00:11:42;;;;;;;5.45;2.15;;;;;;;;;;6311379;22;20442;-79
2024/01/16 00:14:08;;;;;;;6.47;1.70;;;;;;;;;;6309489;22;20022;-79
2024/01/16 00:16:34;;;;;;;6.57;1.92;;;;;;;;;;6310575;22;20019;-79
2024/01/16 00:19:00;;;;;;;10.25;2.20;;;;;;;;;;6281776;22;20026;-79
2024/01/16 00:21:26;;;;;;;1.98;1.25;;;;;;;;;;6284645;22;20086;-80
2024/01/16 00:23:52;;;;;;;9.50;2.50;;;;;;;;;;6310535;22;20015;-80
2024/01/16 00:26:22;;;;;;;4.32;1.77;;;;;;;;;;6311127;22;20356;-80
2024/01/16 00:28:50;;;;;;;7.07;2.80;;;;;;;;;;6311324;22;20015;-80
2024/01/16 00:31:16;;;;;;;5.60;2.05;;;;;;;;;;6281752;22;20045;-80
2024/01/16 00:33:43;;;;;;;7.88;2.17;;;;;;;;;;6310475;22;20018;-79
2024/01/16 00:36:09;;;;;;;9.85;2.38;;;;;;;;;;6310088;22;20284;-79
2024/01/16 00:38:35;;;;;;;15.20;2.00;;;;;;;;;;6310106;22;20016;-80
2024/01/16 00:41:01;;;;;;;5.60;2.00;;;;;;;;;;6309431;22;20404;-79
2024/01/16 00:43:27;;;;;;;9.20;2.30;;;;;;;;;;6310014;22;20090;-79
2024/01/16 00:45:53;;;;;;;5.57;1.60;;;;;;;;;;6308841;22;20019;-79
2024/01/16 00:48:20;;;;;;;4.60;2.38;;;;;;;;;;6310206;22;20463;-80
2024/01/16 00:50:49;;;;;;;7.28;2.10;;;;;;;;;;6310440;22;20028;-79
2024/01/16 00:53:16;;;;;;;6.63;1.92;;;;;;;;;;6307800;22;20026;-80
2024/01/16 00:55:42;;;;;;;2.00;1.33;;;;;;;;;;6309555;22;20105;-80
2024/01/16 00:58:08;;;;;;;1.05;1.00;;;;;;;;;;6282573;22;20015;-80
2024/01/16 01:00:36;;;;;;;1.35;1.05;;;;;;;;;;6307951;22;20479;-80
2024/01/16 01:03:03;;;;;;;4.90;1.50;;;;;;;;;;6309462;22;20389;-79
2024/01/16 01:05:29;;;;;;;7.22;1.90;;;;;;;;;;6310037;22;20019;-80
2024/01/16 01:07:56;;;;;;;3.10;1.75;;;;;;;;;;6310191;22;20022;-80
2024/01/16 01:10:22;;;;;;;9.23;1.80;;;;;;;;;;6309660;22;20069;-79
2024/01/16 01:12:48;;;;;;;7.63;2.05;;;;;;;;;;6309472;22;20436;-80
2024/01/16 01:15:15;;;;;;;4.00;1.58;;;;;;;;;;6310007;22;20106;-79
2024/01/16 01:17:41;;;;;;;3.72;1.48;;;;;;;;;;6309743;22;20090;-79
2024/01/16 01:20:08;;;;;;;4.18;1.40;;;;;;;;;;6309835;22;20054;-79
2024/01/16 01:22:34;;;;;;;5.35;1.80;;;;;;;;;;6310092;22;20477;-79
2024/01/16 01:25:00;;;;;;;7.57;1.60;;;;;;;;;;6309615;22;20023;-79
2024/01/16 01:27:26;;;;;;;4.50;1.70;;;;;;;;;;6283663;22;20021;-79
2024/01/16 01:29:52;;;;;;;5.85;1.73;;;;;;;;;;6312667;22;20049;-79
2024/01/16 01:32:18;;;;;;;3.35;1.85;;;;;;;;;;6311725;22;20440;-79
2024/01/16 01:34:44;;;;;;;2.83;1.40;;;;;;;;;;6311940;22;20020;-79
2024/01/16 01:37:10;;;;;;;4.05;2.00;;;;;;;;;;6311462;22;20027;-79
2024/01/16 01:39:36;;;;;;;3.95;1.73;;;;;;;;;;6310589;22;20019;-79
2024/01/16 01:42:02;;;;;;;4.80;1.50;;;;;;;;;;6284715;22;20329;-80
2024/01/16 01:44:28;;;;;;;3.45;1.60;;;;;;;;;;6284736;22;20023;-80
2024/01/16 01:46:55;;;;;;;10.05;2.65;;;;;;;;;;6284044;22;20058;-80
2024/01/16 01:49:22;;;;;;;7.82;3.30;;;;;;;;;;6307930;22;20019;-80
2024/01/16 01:51:49;;;;;;;5.10;1.48;;;;;;;;;;6311960;22;20022;-79
2024/01/16 01:54:15;;;;;;;7.78;1.67;;;;;;;;;;6284172;22;20339;-80
2024/01/16 01:56:44;;;;;;;8.73;2.28;;;;;;;;;;6310581;22;20054;-81
2024/01/16 01:59:10;;;;;;;5.72;2.17;;;;;;;;;;6305763;22;20019;-80
2024/01/16 02:01:36;;;;;;;7.70;2.03;;;;;;;;;;6303910;22;20030;-80
2024/01/16 02:04:03;;;;;;;6.10;1.85;;;;;;;;;;6308511;22;20023;-80
2024/01/16 02:06:29;;;;;;;4.78;2.15;;;;;;;;;;6308902;22;20019;-80
2024/01/16 02:08:55;;;;;;;4.57;2.08;;;;;;;;;;6308774;22;20025;-80
2024/01/16 02:11:21;;;;;;;10.88;3.40;;;;;;;;;;6307696;22;20036;-80
2024/01/16 02:13:47;;;;;;;9.77;2.58;;;;;;;;;;6308245;22;20015;-80
2024/01/16 02:16:23;;;;;;;5.25;1.67;;;;;;;;;;6282128;22;20046;-80
2024/01/16 02:18:51;;;;;;;6.28;2.30;;;;;;;;;;6254073;22;20356;-80
2024/01/16 02:21:25;;;;;;;4.45;1.98;;;;;;;;;;6309376;22;20015;-80
2024/01/16 02:23:52;;;;;;;7.10;2.00;;;;;;;;;;6308718;22;20022;-80
2024/01/16 02:26:19;;;;;;;5.90;1.70;;;;;;;;;;6310056;22;20022;-79
2024/01/16 02:28:45;;;;;;;11.45;2.40;;;;;;;;;;6307753;22;20031;-79
2024/01/16 02:31:11;;;;;;;5.85;2.30;;;;;;;;;;6304225;22;20481;-80
2024/01/16 02:33:37;;;;;;;5.57;1.73;;;;;;;;;;6306565;22;20021;-80
2024/01/16 02:36:04;;;;;;;5.43;2.20;;;;;;;;;;6307467;22;20023;-80
2024/01/16 02:38:30;;;;;;;6.57;1.92;;;;;;;;;;6308502;22;20022;-79
2024/01/16 02:40:56;;;;;;;29.65;2.80;;;;;;;;;;6307247;22;20015;-80
2024/01/16 02:43:22;;;;;;;5.88;1.75;;;;;;;;;;6308492;22;20019;-80
2024/01/16 02:45:48;;;;;;;9.68;2.05;;;;;;;;;;6306940;22;20019;-80
2024/01/16 02:48:15;;;;;;;7.15;1.90;;;;;;;;;;6308952;22;20011;-80
2024/01/16 02:50:41;;;;;;;9.18;1.90;;;;;;;;;;6309102;22;20026;-80
2024/01/16 02:53:07;;;;;;;8.25;2.20;;;;;;;;;;6308971;22;20019;-80
2024/01/16 02:55:33;;;;;;;5.80;2.13;;;;;;;;;;6309097;22;20027;-80
2024/01/16 02:57:59;;;;;;;5.50;1.80;;;;;;;;;;6309503;22;20023;-80
2024/01/16 03:00:25;;;;;;;6.93;2.10;;;;;;;;;;6309126;22;20011;-80
2024/01/16 03:02:51;;;;;;;5.32;1.92;;;;;;;;;;6309007;22;20042;-80
2024/01/16 03:05:17;;;;;;;5.45;1.92;;;;;;;;;;6309540;22;20022;-80
2024/01/16 03:07:43;;;;;;;6.03;1.88;;;;;;;;;;6309040;22;20025;-80
2024/01/16 03:10:09;;;;;;;9.27;2.55;;;;;;;;;;6282555;22;20317;-80
2024/01/16 03:12:35;;;;;;;3.40;1.73;;;;;;;;;;6309380;22;20373;-80
2024/01/16 03:15:01;;;;;;;6.10;1.83;;;;;;;;;;6307583;22;20775;-81
2024/01/16 03:17:27;;;;;;;4.60;2.60;;;;;;;;;;6305605;22;20050;-81
2024/01/16 03:19:53;;;;;;;6.05;2.10;;;;;;;;;;6282280;22;20088;-80
2024/01/16 03:22:19;;;;;;;8.85;2.13;;;;;;;;;;6309335;22;20019;-80
2024/01/16 03:24:45;;;;;;;7.22;2.08;;;;;;;;;;6256767;22;20019;-80
2024/01/16 03:27:12;;;;;;;8.52;2.47;;;;;;;;;;6310215;22;20046;-80
2024/01/16 03:29:38;;;;;;;7.28;1.92;;;;;;;;;;6310224;22;20081;-80
2024/01/16 03:32:04;;;;;;;11.95;2.38;;;;;;;;;;6281696;22;20042;-80
2024/01/16 03:34:31;;;;;;;8.02;1.88;;;;;;;;;;6309510;22;20022;-80
2024/01/16 03:36:57;;;;;;;8.93;2.10;;;;;;;;;;6309417;22;20056;-81
2024/01/16 03:39:23;;;;;;;5.35;1.75;;;;;;;;;;6281868;22;20098;-81
2024/01/16 03:41:49;;;;;;;7.65;2.10;;;;;;;;;;6282734;22;20026;-81
2024/01/16 03:44:15;;;;;;;7.97;2.13;;;;;;;;;;6308892;22;20335;-80
2024/01/16 03:46:42;;;;;;;5.75;1.73;;;;;;;;;;6309210;22;20019;-80
2024/01/16 03:49:08;;;;;;;7.95;2.20;;;;;;;;;;6309953;22;20090;-80
2024/01/16 03:51:34;;;;;;;6.15;2.00;;;;;;;;;;6310125;22;20015;-80
2024/01/16 03:54:00;;;;;;;8.95;2.47;;;;;;;;;;6310062;22;20011;-80
2024/01/16 03:56:26;;;;;;;8.65;2.33;;;;;;;;;;6309161;22;20018;-81
2024/01/16 03:58:52;;;;;;;7.32;2.13;;;;;;;;;;6310196;22;20049;-80
2024/01/16 04:01:18;;;;;;;7.60;2.30;;;;;;;;;;6310150;22;20026;-80
2024/01/16 04:03:44;;;;;;;7.30;2.50;;;;;;;;;;6310356;22;20007;-80
2024/01/16 04:06:17;;;;;;;12.20;2.55;;;;;;;;;;6310822;22;20054;-80
2024/01/16 04:08:43;;;;;;;8.38;2.15;;;;;;;;;;6283204;22;20133;-80
2024/01/16 04:11:13;;;;;;;6.03;1.90;;;;;;;;;;6282668;22;20015;-80
2024/01/16 04:13:40;;;;;;;10.07;1.88;;;;;;;;;;6256760;22;20022;-80
2024/01/16 04:16:06;;;;;;;6.13;2.05;;;;;;;;;;6280258;22;20023;-80
2024/01/16 04:18:37;;;;;;;8.02;1.80;;;;;;;;;;6281838;22;20076;-80
2024/01/16 04:21:03;;;;;;;7.10;1.63;;;;;;;;;;6309928;22;20055;-80
2024/01/16 04:23:29;;;;;;;3.75;1.02;;;;;;;;;;6282988;22;20456;-80
2024/01/16 04:25:55;;;;;;;5.20;1.20;;;;;;;;;;6310531;22;20100;-80
2024/01/16 04:28:21;;;;;;;2.35;1.10;;;;;;;;;;6310998;22;20022;-79
2024/01/16 04:30:47;;;;;;;2.58;1.13;;;;;;;;;;6309660;22;20022;-80
2024/01/16 04:33:13;;;;;;;3.00;1.20;;;;;;;;;;6310092;22;20011;-80
2024/01/16 04:35:39;;;;;;;2.65;1.33;;;;;;;;;;6281620;22;20062;-80
2024/01/16 04:38:05;;;;;;;7.65;1.90;;;;;;;;;;6309406;22;20042;-80
2024/01/16 04:40:31;;;;;;;8.15;2.55;;;;;;;;;;6309305;22;20348;-80
2024/01/16 04:42:57;;;;;;;8.50;1.70;;;;;;;;;;6282679;22;20022;-80
2024/01/16 04:45:23;;;;;;;5.32;1.75;;;;;;;;;;6309638;22;20034;-80
2024/01/16 04:47:49;;;;;;;4.45;1.80;;;;;;;;;;6309088;22;20019;-80
2024/01/16 04:50:16;;;;;;;4.68;1.60;;;;;;;;;;6309923;22;20451;-80
2024/01/16 04:52:43;;;;;;;4.95;1.50;;;;;;;;;;6282404;22;20072;-80
2024/01/16 04:55:09;;;;;;;8.00;1.65;;;;;;;;;;6282863;22;20023;-81
2024/01/16 04:57:35;;;;;;;9.73;1.90;;;;;;;;;;6310180;22;20055;-80
2024/01/16 05:00:01;;;;;;;5.28;1.80;;;;;;;;;;6310709;22;20329;-80
2024/01/16 05:02:27;;;;;;;7.72;2.15;;;;;;;;;;6311179;22;20019;-80
2024/01/16 05:04:53;;;;;;;6.95;1.85;;;;;;;;;;6312327;22;20077;-80
2024/01/16 05:07:22;;;;;;;8.07;1.80;;;;;;;;;;6312404;22;20093;-80
2024/01/16 05:09:48;;;;;;;10.63;2.00;;;;;;;;;;6311781;22;20045;-80
2024/01/16 05:12:14;;;;;;;5.63;1.95;;;;;;;;;;6311693;22;20348;-80
2024/01/16 05:14:40;;;;;;;9.77;2.20;;;;;;;;;;6284434;22;20033;-80
2024/01/16 05:17:06;;;;;;;7.63;2.40;;;;;;;;;;6311385;22;20328;-80
2024/01/16 05:19:32;;;;;;;5.32;1.80;;;;;;;;;;6284066;22;20328;-81
2024/01/16 05:21:58;;;;;;;9.45;2.70;;;;;;;;;;6311117;22;20019;-81
2024/01/16 05:24:24;;;;;;;13.35;2.75;;;;;;;;;;6311835;22;20019;-81
2024/01/16 05:26:50;;;;;;;9.02;2.20;;;;;;;;;;6311924;22;20011;-81
2024/01/16 05:29:17;;;;;;;11.50;2.85;;;;;;;;;;6311973;22;20398;-81
2024/01/16 05:31:43;;;;;;;10.32;2.30;;;;;;;;;;6311792;22;20023;-81
2024/01/16 05:34:09;;;;;;;5.53;2.00;;;;;;;;;;6311686;22;20022;-81
2024/01/16 05:36:35;;;;;;;11.88;2.78;;;;;;;;;;6311523;22;20023;-81
2024/01/16 05:39:02;;;;;;;9.18;2.03;;;;;;;;;;6311004;22;20081;-81
2024/01/16 05:41:30;;;;;;;13.02;2.20;;;;;;;;;;6311451;22;20351;-81
2024/01/16 05:43:56;;;;;;;7.40;2.78;;;;;;;;;;6311983;22;20054;-81
2024/01/16 05:46:22;;;;;;;10.50;2.58;;;;;;;;;;6310447;22;20023;-82
2024/01/16 05:48:48;;;;;;;8.63;2.25;;;;;;;;;;6312280;22;20019;-82
2024/01/16 05:51:14;;;;;;;7.28;2.08;;;;;;;;;;6283853;22;20068;-82
2024/01/16 05:53:40;;;;;;;5.78;2.20;;;;;;;;;;6283909;22;20015;-82
2024/01/16 05:56:07;;;;;;;9.65;2.85;;;;;;;;;;6311527;22;20134;-81
2024/01/16 05:58:38;;;;;;;5.85;2.47;;;;;;;;;;6312031;22;20019;-82
2024/01/16 06:01:04;;;;;;;6.65;2.60;;;;;;;;;;6260218;22;20148;-82
2024/01/16 06:03:31;;;;;;;6.60;2.35;;;;;;;;;;6284564;22;20023;-81
2024/01/16 06:06:00;;;;;;;4.50;1.92;;;;;;;;;;6285014;22;20432;-81
2024/01/16 06:08:26;;;;;;;7.70;2.13;;;;;;;;;;6284692;22;20023;-81
2024/01/16 06:10:52;;;;;;;7.15;2.10;;;;;;;;;;6310588;22;20086;-81
2024/01/16 06:13:19;;;;;;;10.52;2.90;;;;;;;;;;6309634;22;20407;-81
2024/01/16 06:15:45;;;;;;;8.30;2.40;;;;;;;;;;6282449;22;20051;-81
2024/01/16 06:18:11;;;;;;;7.03;2.38;;;;;;;;;;6309037;22;20023;-81
2024/01/16 06:20:37;;;;;;;5.88;2.20;;;;;;;;;;6282743;22;20074;-81
2024/01/16 06:23:03;;;;;;;6.53;2.00;;;;;;;;;;6310234;22;20094;-81
2024/01/16 06:25:29;;;;;;;5.95;2.58;;;;;;;;;;6309892;22;20023;-81
2024/01/16 06:27:56;;;;;;;4.97;2.30;;;;;;;;;;6310126;22;20360;-82
2024/01/16 06:30:23;;;;;;;4.90;2.28;;;;;;;;;;6309562;22;20436;-82
2024/01/16 06:32:49;;;;;;;5.05;2.63;;;;;;;;;;6309953;22;20046;-82
2024/01/16 06:35:16;;;;;;;9.07;2.60;;;;;;;;;;6282674;22;20348;-82
2024/01/16 06:37:43;;;;;;;8.63;2.47;;;;;;;;;;6310548;22;20015;-82
2024/01/16 06:40:09;;;;;;;7.97;2.47;;;;;;;;;;6282837;22;20026;-82
2024/01/16 06:42:38;;;;;;;8.73;2.70;;;;;;;;;;6281588;22;20023;-82
2024/01/16 06:45:04;;;;;;;9.52;2.38;;;;;;;;;;6281785;22;20098;-82
2024/01/16 06:47:31;;;;;;;8.10;2.05;;;;;;;;;;6309362;22;20335;-82
2024/01/16 06:49:57;;;;;;;14.45;2.45;;;;;;;;;;6309918;22;20091;-81
2024/01/16 06:52:24;;;;;;;11.70;2.53;;;;;;;;;;6309495;22;20026;-82
2024/01/16 06:54:50;;;;;;;4.60;1.85;;;;;;;;;;6282717;22;20040;-81
2024/01/16 06:57:16;;;;;;;12.90;3.08;;;;;;;;;;6281836;22;20019;-81
2024/01/16 06:59:42;;;;;;;5.90;1.83;;;;;;;;;;6309809;22;20042;-82
2024/01/16 07:02:08;;;;;;;11.40;2.13;;;;;;;;;;6281810;22;20058;-80
2024/01/16 07:04:34;;;;;;;7.05;2.10;;;;;;;;;;6280278;22;20095;-80
2024/01/16 07:07:00;;;;;;;9.85;2.08;;;;;;;;;;6306839;22;20405;-80
2024/01/16 07:09:27;;;;;;;3.60;1.67;;;;;;;;;;6307086;22;20103;-80
2024/01/16 07:11:53;;;;;;;6.40;2.08;;;;;;;;;;6307142;22;20023;-80
2024/01/16 07:14:19;;;;;;;5.97;2.13;;;;;;;;;;6279662;22;20503;-81
2024/01/16 07:16:45;;;;;;;9.77;2.38;;;;;;;;;;6306664;22;20392;-81
2024/01/16 07:19:14;;;;;;;10.07;2.15;;;;;;;;;;6307801;22;20019;-81
2024/01/16 07:21:40;;;;;;;8.98;2.47;;;;;;;;;;6309924;22;20073;-81
2024/01/16 07:24:06;;;;;;;13.23;2.97;;;;;;;;;;6310188;22;20090;-81
2024/01/16 07:26:32;;;;;;;9.38;2.70;;;;;;;;;;6309645;22;20012;-81
2024/01/16 07:28:58;;;;;;;8.50;3.40;;;;;;;;;;6309063;22;20058;-82
2024/01/16 07:31:24;;;;;;;8.50;3.00;;;;;;;;;;6309561;22;20532;-81
2024/01/16 07:33:50;;;;;;;5.72;2.22;;;;;;;;;;6310055;22;20030;-81
2024/01/16 07:36:16;;;;;;;5.38;2.63;;;;;;;;;;6309883;22;20019;-81
2024/01/16 07:38:43;;;;;;;8.23;2.20;;;;;;;;;;6310142;22;20015;-81
2024/01/16 07:41:09;;;;;;;8.23;2.42;;;;;;;;;;6309113;22;20019;-81
2024/01/16 07:43:35;;;;;;;12.13;3.13;;;;;;;;;;6310039;22;20011;-81
2024/01/16 07:46:01;;;;;;;10.57;2.85;;;;;;;;;;6310253;22;20011;-81
2024/01/16 07:48:27;;;;;;;11.93;2.28;;;;;;;;;;6278997;22;20460;-81
2024/01/16 07:50:53;;;;;;;6.82;2.20;;;;;;;;;;6306812;22;20348;-81
2024/01/16 07:53:19;;;;;;;7.85;2.10;;;;;;;;;;6281404;22;20454;-81
2024/01/16 07:55:45;;;;;;;10.30;2.28;;;;;;;;;;6308799;22;20435;-81
2024/01/16 07:58:12;;;;;;;6.53;2.17;;;;;;;;;;6308291;22;20127;-80
2024/01/16 08:00:40;;;;;;;6.00;2.15;;;;;;;;;;6309078;22;20023;-82
2024/01/16 08:03:08;;;;;;;5.32;2.10;;;;;;;;;;6308849;22;20025;-81
2024/01/16 08:05:34;;;;;;;5.07;2.10;;;;;;;;;;6280963;22;20023;-80
2024/01/16 08:08:00;;;;;;;6.10;1.80;;;;;;;;;;6279637;22;20015;-81
2024/01/16 08:10:26;;;;;;;3.70;1.80;;;;;;;;;;6307119;22;20064;-81
2024/01/16 08:12:52;;;;;;;7.55;1.67;;;;;;;;;;6277523;22;20383;-80
2024/01/16 08:15:18;;;;;;;8.00;1.70;;;;;;;;;;6304389;22;20026;-81
2024/01/16 08:17:44;;;;;;;4.00;1.80;;;;;;;;;;6306949;22;20019;-80
2024/01/16 08:20:10;;;;;;;3.70;1.52;;;;;;;;;;6308435;22;20089;-81
2024/01/16 08:22:37;;;;;;;5.15;1.77;;;;;;;;;;6280223;22;20023;-81
2024/01/16 08:25:04;;;;;;;4.88;2.20;;;;;;;;;;6308197;22;20015;-81
2024/01/16 08:27:31;;;;;;;4.50;1.85;;;;;;;;;;6308059;22;20026;-81
2024/01/16 08:29:57;;;;;;;5.70;1.70;;;;;;;;;;6308272;22;20011;-81
2024/01/16 08:32:23;;;;;;;3.03;1.63;;;;;;;;;;6307336;22;20339;-83
2024/01/16 08:34:49;;;;;;;4.38;1.60;;;;;;;;;;6279686;22;20503;-83
2024/01/16 08:37:15;;;;;;;4.13;1.70;;;;;;;;;;6278773;22;20443;-83
2024/01/16 09:00:27;;;;;;;12.80;2.40;;;;;;;;;;5069975;28;1260172;-72
2024/01/16 09:02:53;;;;;;;5.30;2.10;;;;;;;;;;5079868;28;20051;-72
2024/01/16 09:05:21;;;;;;;4.45;2.03;;;;;;;;;;5110102;28;20040;-77
2024/01/16 09:07:47;;;;;;;4.47;2.38;;;;;;;;;;5103445;28;20077;-76
2024/01/16 09:10:13;;;;;;;6.68;2.60;;;;;;;;;;5079485;28;20040;-74
2024/01/16 09:12:39;;;;;;;8.05;2.65;;;;;;;;;;5096718;28;20043;-73
2024/01/16 09:15:06;;;;;;;8.02;4.18;;;;;;;;;;5079227;28;20075;-73
2024/01/16 09:17:32;;;;;;;5.00;2.35;;;;;;;;;;5105075;28;20044;-73
2024/01/16 09:19:57;;;;;;;3.83;2.55;;;;;;;;;;5100049;28;20378;-73
2024/01/16 09:22:23;;;;;;;7.00;2.70;;;;;;;;;;5107887;28;20052;-73
2024/01/16 09:24:50;;;;;;;7.30;2.67;;;;;;;;;;5106065;28;20127;-73
2024/01/16 09:27:16;;;;;;;9.23;2.38;;;;;;;;;;5102360;28;20119;-73
2024/01/16 09:29:42;;;;;;;6.78;3.08;;;;;;;;;;5101107;28;20040;-73
2024/01/16 09:32:09;;;;;;;8.07;2.83;;;;;;;;;;5100744;28;20060;-75
2024/01/16 09:34:35;;;;;;;9.30;2.08;;;;;;;;;;5097543;28;20384;-75
2024/01/16 09:37:02;;;;;;;2.60;1.40;;;;;;;;;;5105621;28;20451;-79
2024/01/16 09:39:31;;;;;;;1.92;1.50;;;;;;;;;;5102852;28;20466;-75
2024/01/16 09:42:03;;;;;;;4.43;1.38;;;;;;;;;;5098562;28;20040;-75
2024/01/16 09:44:29;;;;;;;4.43;1.42;;;;;;;;;;5087573;28;20056;-75
2024/01/16 09:46:56;;;;;;;4.65;1.70;;;;;;;;;;5107419;28;20048;-75
2024/01/16 09:49:23;;;;;;;1.88;1.27;;;;;;;;;;5104740;28;20043;-75
2024/01/16 09:51:49;;;;;;;1.83;1.38;;;;;;;;;;5084889;28;20080;-72
2024/01/16 09:54:15;;;;;;;3.42;1.40;;;;;;;;;;5097105;28;20383;-72
2024/01/16 09:56:45;;;;;;;3.03;1.58;;;;;;;;;;5103862;28;20052;-72
2024/01/16 09:59:13;;;;;;;5.03;1.73;;;;;;;;;;5091837;28;20115;-72
2024/01/16 10:01:39;;;;;;;3.08;1.30;;;;;;;;;;5081176;28;20048;-72
2024/01/16 10:04:05;;;;;;;2.28;1.50;;;;;;;;;;5073126;28;20059;-72
2024/01/16 10:06:32;;;;;;;3.88;1.60;;;;;;;;;;5051351;28;20051;-72
2024/01/16 10:08:58;;;;;;;3.08;2.05;;;;;;;;;;5069614;28;20483;-72
2024/01/16 10:11:24;;;;;;;3.35;1.63;;;;;;;;;;5066414;28;20048;-72
2024/01/16 10:13:50;;;;;;;2.70;1.80;;;;;;;;;;5056745;28;20048;-72
2024/01/16 10:16:16;;;;;;;2.92;2.03;;;;;;;;;;5071086;28;20049;-72
2024/01/16 10:18:43;;;;;;;4.72;2.10;;;;;;;;;;5074707;28;20394;-72
2024/01/16 10:21:22;;;;;;;4.22;1.90;;;;;;;;;;5069915;28;20504;-72
2024/01/16 10:23:48;;;;;;;8.07;2.40;;;;;;;;;;5068346;28;20055;-72
2024/01/16 10:26:14;;;;;;;4.60;1.85;;;;;;;;;;5074584;28;20499;-72
2024/01/16 10:28:41;;;;;;;3.63;2.28;;;;;;;;;;5070917;28;20047;-74
2024/01/16 10:31:11;;;;;;;4.35;2.38;;;;;;;;;;5060671;28;20089;-74
2024/01/16 10:33:39;;;;;;;5.38;2.67;;;;;;;;;;5072576;28;20043;-74
2024/01/16 10:36:10;;;;;;;3.97;2.30;;;;;;;;;;5061632;28;20496;-71
2024/01/16 10:38:39;;;;;;;5.05;2.10;;;;;;;;;;5068775;28;20045;-71
2024/01/16 10:41:18;;;;;;;3.42;1.77;;;;;;;;;;5058577;28;20182;-71
2024/01/16 10:43:44;;;;;;;5.50;2.20;;;;;;;;;;5066667;28;20044;-72
2024/01/16 10:46:11;;;;;;;3.83;2.40;;;;;;;;;;5072392;28;20049;-72
2024/01/16 10:48:38;;;;;;;3.95;2.70;;;;;;;;;;5067405;28;20527;-72
2024/01/16 10:51:06;;;;;;;4.43;2.05;;;;;;;;;;5078172;28;20041;-71
2024/01/16 10:53:33;;;;;;;5.53;1.85;;;;;;;;;;5065068;28;20037;-72
2024/01/16 10:56:00;;;;;;;4.60;1.90;;;;;;;;;;5069583;28;20056;-72
2024/01/16 11:12:00;;;;;;;4.70;2.67;;;;;;;;;;5023027;28;20058;-73
2024/01/16 11:14:26;;;;;;;3.22;2.40;;;;;;;;;;5034010;28;20075;-75
2024/01/16 11:16:52;;;;;;;4.85;2.30;;;;;;;;;;5023616;28;20496;-75
2024/01/16 11:19:18;;;;;;;6.35;2.30;;;;;;;;;;5023666;28;20045;-76
2024/01/16 11:21:44;;;;;;;4.90;2.53;;;;;;;;;;5034122;28;20147;-75
2024/01/16 11:24:11;;;;;;;6.18;2.65;;;;;;;;;;5031187;28;20072;-76
2024/01/16 11:26:40;;;;;;;9.70;2.88;;;;;;;;;;5025055;28;20464;-76
2024/01/16 11:29:25;;;;;;;4.18;2.28;;;;;;;;;;5033529;28;20095;-76
2024/01/16 11:31:51;;;;;;;4.85;2.55;;;;;;;;;;5033373;28;20507;-75
2024/01/16 11:34:37;;;;;;;4.82;2.38;;;;;;;;;;5023040;28;20564;-75
2024/01/16 11:37:04;;;;;;;5.20;2.50;;;;;;;;;;5015130;28;20045;-75
2024/01/16 11:39:31;;;;;;;3.97;2.20;;;;;;;;;;5028163;28;20069;-75
2024/01/16 11:42:03;;;;;;;4.07;2.00;;;;;;;;;;5016732;28;20049;-75
2024/01/16 11:44:42;;;;;;;5.75;2.10;;;;;;;;;;5025758;28;20046;-77
2024/01/16 11:47:08;;;;;;;5.40;2.60;;;;;;;;;;5033471;28;20090;-74
2024/01/16 11:49:35;;;;;;;4.10;1.85;;;;;;;;;;5031434;28;20042;-74
2024/01/16 11:52:02;;;;;;;6.15;2.88;;;;;;;;;;5029305;28;20041;-74
2024/01/16 11:54:28;;;;;;;5.60;2.50;;;;;;;;;;5023147;28;20061;-74
2024/01/16 11:57:00;;;;;;;3.78;2.50;;;;;;;;;;5031777;28;20065;-74
2024/01/16 12:00:07;;;;;;;4.03;2.22;;;;;;;;;;5030786;28;20041;-74
2024/01/16 12:02:56;;;;;;;7.33;2.40;;;;;;;;;;4952820;28;20047;-74
2024/01/16 12:05:22;;;;;;;9.70;3.00;;;;;;;;;;5016146;28;20488;-74
2024/01/16 12:07:49;;;;;;;5.43;2.33;;;;;;;;;;5032638;28;20199;-74
2024/01/16 12:10:19;;;;;;;5.47;2.20;;;;;;;;;;5022123;28;20502;-73
2024/01/16 12:12:46;;;;;;;7.68;2.25;;;;;;;;;;5032932;28;20572;-73
2024/01/16 12:15:19;;;;;;;4.70;2.40;;;;;;;;;;5032633;28;20052;-73
2024/01/16 12:17:52;;;;;;;5.68;2.28;;;;;;;;;;5019139;28;20053;-73
2024/01/16 12:20:19;;;;;;;3.58;2.35;;;;;;;;;;5031072;28;20037;-73
2024/01/16 12:22:45;;;;;;;9.68;2.38;;;;;;;;;;5032695;28;20500;-73
2024/01/16 12:25:12;;;;;;;3.92;2.00;;;;;;;;;;5032421;28;20052;-73
2024/01/16 12:27:38;;;;;;;5.93;2.53;;;;;;;;;;5031337;28;20056;-73
2024/01/16 12:30:08;;;;;;;5.85;2.70;;;;;;;;;;5031349;28;20041;-73
2024/01/16 12:32:34;;;;;;;8.82;3.05;;;;;;;;;;5031519;28;20155;-73
2024/01/16 12:35:00;;;;;;;8.13;2.80;;;;;;;;;;5020689;28;20068;-73
2024/01/16 12:37:26;;;;;;;8.98;2.85;;;;;;;;;;5030801;28;20491;-73
2024/01/16 12:39:53;;;;;;;8.30;3.20;;;;;;;;;;5026547;28;20450;-73
2024/01/16 12:42:19;;;;;;;7.60;2.75;;;;;;;;;;5021772;28;20048;-73
2024/01/16 12:44:46;;;;;;;8.43;2.78;;;;;;;;;;5032369;28;20072;-73
2024/01/16 12:47:16;;;;;;;7.15;2.50;;;;;;;;;;5031450;28;20144;-73
2024/01/16 12:49:42;;;;;;;9.32;2.70;;;;;;;;;;5031501;28;20037;-73
2024/01/16 12:52:16;;;;;;;7.20;3.38;;;;;;;;;;5027652;28;20116;-73
2024/01/16 12:54:42;;;;;;;8.90;3.35;;;;;;;;;;5019293;28;20034;-73
2024/01/16 12:57:13;;;;;;;7.10;3.10;;;;;;;;;;5030613;28;20495;-73
2024/01/16 12:59:39;;;;;;;9.93;3.85;;;;;;;;;;5025499;28;20058;-73
2024/01/16 13:02:05;;;;;;;8.32;3.03;;;;;;;;;;5016959;28;20086;-73
2024/01/16 13:04:31;;;;;;;11.50;4.57;;;;;;;;;;5031823;28;20541;-73
2024/01/16 13:07:05;;;;;;;6.75;3.78;;;;;;;;;;5030785;28;20048;-73
2024/01/16 13:09:31;;;;;;;11.73;4.95;;;;;;;;;;5027813;28;20046;-73
2024/01/16 13:12:00;;;;;;;10.13;5.10;;;;;;;;;;5026390;28;20413;-73
2024/01/16 13:14:26;;;;;;;10.10;4.63;;;;;;;;;;5032826;28;20104;-73
2024/01/16 13:16:55;;;;;;;8.80;4.38;;;;;;;;;;5015490;28;20062;-73
2024/01/16 13:19:22;;;;;;;11.98;5.90;;;;;;;;;;5019717;28;20046;-73
2024/01/16 13:21:48;;;;;;;7.45;3.65;;;;;;;;;;5032424;28;20038;-73
2024/01/16 13:24:14;;;;;;;5.57;3.00;;;;;;;;;;5031730;28;20084;-73
2024/01/16 13:26:41;;;;;;;6.57;3.30;;;;;;;;;;5032262;28;20074;-73
2024/01/16 13:29:09;;;;;;;9.57;3.85;;;;;;;;;;5031174;28;20076;-73
2024/01/16 13:31:35;;;;;;;6.18;3.42;;;;;;;;;;5026469;28;20058;-73
2024/01/16 13:34:01;;;;;;;8.75;4.63;;;;;;;;;;5020008;28;20555;-73
2024/01/16 13:36:27;;;;;;;10.45;4.82;;;;;;;;;;5033979;28;20037;-73
2024/01/16 13:38:54;;;;;;;7.18;2.78;;;;;;;;;;5022369;28;20051;-73
2024/01/16 13:41:21;;;;;;;7.93;2.63;;;;;;;;;;5034294;28;20176;-73
2024/01/16 13:43:49;;;;;;;7.03;2.40;;;;;;;;;;5034244;28;20106;-73
2024/01/16 13:46:17;;;;;;;9.77;3.33;;;;;;;;;;5017266;28;20048;-72
2024/01/16 13:48:44;;;;;;;7.82;2.45;;;;;;;;;;5035045;28;20443;-74
2024/01/16 13:51:10;;;;;;;5.28;2.22;;;;;;;;;;5028994;28;20049;-73
2024/01/16 13:53:36;;;;;;;5.75;2.78;;;;;;;;;;5018679;28;20049;-73
2024/01/16 13:56:02;;;;;;;6.65;2.65;;;;;;;;;;5029185;28;20121;-73
2024/01/16 13:58:28;;;;;;;12.20;4.75;;;;;;;;;;5023767;28;20049;-73
2024/01/16 14:00:54;;;;;;;7.03;3.00;;;;;;;;;;5035336;28;20053;-73
2024/01/16 14:03:20;;;;;;;8.57;3.33;;;;;;;;;;5028447;28;20080;-73
2024/01/16 14:05:47;;;;;;;7.75;3.25;;;;;;;;;;5029343;28;20045;-73
2024/01/16 14:08:14;;;;;;;6.43;2.63;;;;;;;;;;5029343;28;20085;-73
2024/01/16 14:10:40;;;;;;;7.57;2.67;;;;;;;;;;5033647;28;20057;-73
2024/01/16 14:13:06;;;;;;;8.90;3.00;;;;;;;;;;5023991;28;20057;-73
2024/01/16 14:15:32;;;;;;;7.03;2.60;;;;;;;;;;5034227;28;20437;-73
2024/01/16 14:17:59;;;;;;;11.05;3.45;;;;;;;;;;5026739;28;20442;-73
2024/01/16 14:20:26;;;;;;;6.47;2.83;;;;;;;;;;5033524;28;20053;-73
2024/01/16 14:22:53;;;;;;;5.80;2.60;;;;;;;;;;5014345;28;20081;-73
2024/01/16 14:25:19;;;;;;;7.28;2.90;;;;;;;;;;5034523;28;20029;-73
2024/01/16 14:28:03;;;;;;;10.02;2.80;;;;;;;;;;5035103;28;20053;-73
2024/01/16 14:30:29;;;;;;;4.53;2.22;;;;;;;;;;5010767;28;20179;-73
2024/01/16 14:32:56;;;;;;;5.65;2.10;;;;;;;;;;5033363;28;20041;-73
2024/01/16 14:35:23;;;;;;;5.28;2.30;;;;;;;;;;5029299;28;20045;-73
2024/01/16 14:37:50;;;;;;;4.40;2.30;;;;;;;;;;5032573;28;21130;-74
2024/01/16 14:40:20;;;;;;;5.07;1.98;;;;;;;;;;5025286;28;20041;-74
2024/01/16 14:42:47;;;;;;;4.22;2.17;;;;;;;;;;5026363;28;20068;-77
2024/01/16 14:45:14;;;;;;;4.05;2.20;;;;;;;;;;5015093;28;20048;-77
2024/01/16 14:47:40;;;;;;;9.25;2.70;;;;;;;;;;5035413;28;20124;-77
2024/01/16 14:50:08;;;;;;;3.60;2.45;;;;;;;;;;5017861;28;20076;-77
2024/01/16 14:52:34;;;;;;;3.42;1.83;;;;;;;;;;5035218;28;20033;-77
2024/01/16 14:55:11;;;;;;;3.47;1.80;;;;;;;;;;5033227;28;20045;-77
2024/01/16 14:57:41;;;;;;;5.40;1.80;;;;;;;;;;5028162;28;20042;-77
2024/01/16 15:00:19;;;;;;;6.50;2.67;;;;;;;;;;5028247;28;20049;-77
2024/01/16 15:02:45;;;;;;;4.45;2.17;;;;;;;;;;5029120;28;20049;-77
2024/01/16 15:05:12;;;;;;;5.18;2.40;;;;;;;;;;5026683;28;20048;-77
2024/01/16 15:07:38;;;;;;;9.48;2.50;;;;;;;;;;5014914;28;20448;-77
2024/01/16 15:10:05;;;;;;;3.63;1.95;;;;;;;;;;5029302;28;20034;-77
2024/01/16 15:12:32;;;;;;;4.03;1.80;;;;;;;;;;5019438;28;20129;-78
2024/01/16 15:14:59;;;;;;;7.10;2.17;;;;;;;;;;5015608;28;20053;-78